sensor_id;sensor_type;location;lat;lon;timestamp;P1;durP1;ratioP1;P2;durP2;ratioP2
53833;SDS011;39735;51.432;5.482;2023-12-04T00:01:13;55.22;;;22.92;;
53833;SDS011;39735;51.432;5.482;2023-12-04T00:03:38;56.33;;;28.98;;
53833;SDS011;39735;51.432;5.482;2023-12-04T00:06:04;44.67;;;22.92;;
53833;SDS011;39735;51.432;5.482;2023-12-04T00:08:29;55.45;;;24.45;;
53833;SDS011;39735;51.432;5.482;2023-12-04T00:10:54;54.63;;;24.07;;
53833;SDS011;39735;51.432;5.482;2023-12-04T00:13:19;46.72;;;24.70;;
53833;SDS011;39735;51.432;5.482;2023-12-04T00:15:45;53.10;;;25.40;;
53833;SDS011;39735;51.432;5.482;2023-12-04T00:18:10;54.03;;;24.10;;
53833;SDS011;39735;51.432;5.482;2023-12-04T00:20:35;50.10;;;24.60;;
53833;SDS011;39735;51.432;5.482;2023-12-04T00:23:01;64.65;;;28.25;;
53833;SDS011;39735;51.432;5.482;2023-12-04T00:25:27;50.42;;;25.55;;
53833;SDS011;39735;51.432;5.482;2023-12-04T00:27:52;56.40;;;24.08;;
53833;SDS011;39735;51.432;5.482;2023-12-04T00:30:17;45.20;;;24.33;;
53833;SDS011;39735;51.432;5.482;2023-12-04T00:32:43;49.58;;;25.98;;
53833;SDS011;39735;51.432;5.482;2023-12-04T00:35:08;55.53;;;25.42;;
53833;SDS011;39735;51.432;5.482;2023-12-04T00:37:33;53.85;;;25.20;;
53833;SDS011;39735;51.432;5.482;2023-12-04T00:40:03;45.20;;;22.70;;
53833;SDS011;39735;51.432;5.482;2023-12-04T00:42:29;43.25;;;22.30;;
53833;SDS011;39735;51.432;5.482;2023-12-04T00:44:54;47.95;;;22.13;;
53833;SDS011;39735;51.432;5.482;2023-12-04T00:47:19;49.28;;;21.23;;
53833;SDS011;39735;51.432;5.482;2023-12-04T00:49:44;42.03;;;22.23;;
53833;SDS011;39735;51.432;5.482;2023-12-04T00:52:10;48.70;;;26.50;;
53833;SDS011;39735;51.432;5.482;2023-12-04T00:54:36;50.83;;;26.17;;
53833;SDS011;39735;51.432;5.482;2023-12-04T00:57:03;54.90;;;26.08;;
53833;SDS011;39735;51.432;5.482;2023-12-04T00:59:28;52.33;;;23.65;;
53833;SDS011;39735;51.432;5.482;2023-12-04T01:01:54;50.53;;;24.10;;
53833;SDS011;39735;51.432;5.482;2023-12-04T01:04:19;44.90;;;21.27;;
53833;SDS011;39735;51.432;5.482;2023-12-04T01:06:44;42.38;;;20.63;;
53833;SDS011;39735;51.432;5.482;2023-12-04T01:09:09;46.08;;;21.88;;
53833;SDS011;39735;51.432;5.482;2023-12-04T01:11:34;57.03;;;23.70;;
53833;SDS011;39735;51.432;5.482;2023-12-04T01:14:01;52.85;;;24.30;;
53833;SDS011;39735;51.432;5.482;2023-12-04T01:16:27;49.97;;;21.42;;
53833;SDS011;39735;51.432;5.482;2023-12-04T01:18:52;47.05;;;23.55;;
53833;SDS011;39735;51.432;5.482;2023-12-04T01:21:17;37.88;;;19.90;;
53833;SDS011;39735;51.432;5.482;2023-12-04T01:23:43;44.60;;;22.30;;
53833;SDS011;39735;51.432;5.482;2023-12-04T01:26:09;47.40;;;21.85;;
53833;SDS011;39735;51.432;5.482;2023-12-04T01:28:35;41.83;;;20.10;;
53833;SDS011;39735;51.432;5.482;2023-12-04T01:31:00;39.03;;;21.65;;
53833;SDS011;39735;51.432;5.482;2023-12-04T01:33:25;37.38;;;20.70;;
53833;SDS011;39735;51.432;5.482;2023-12-04T01:35:51;38.60;;;20.35;;
53833;SDS011;39735;51.432;5.482;2023-12-04T01:38:16;60.90;;;23.83;;
53833;SDS011;39735;51.432;5.482;2023-12-04T01:40:41;45.50;;;21.30;;
53833;SDS011;39735;51.432;5.482;2023-12-04T01:43:06;47.65;;;21.38;;
53833;SDS011;39735;51.432;5.482;2023-12-04T01:45:32;34.35;;;17.98;;
53833;SDS011;39735;51.432;5.482;2023-12-04T01:47:57;45.45;;;22.17;;
53833;SDS011;39735;51.432;5.482;2023-12-04T01:50:23;41.70;;;22.77;;
53833;SDS011;39735;51.432;5.482;2023-12-04T01:52:49;40.33;;;19.80;;
53833;SDS011;39735;51.432;5.482;2023-12-04T01:55:14;46.63;;;22.02;;
53833;SDS011;39735;51.432;5.482;2023-12-04T01:57:40;40.42;;;19.10;;
53833;SDS011;39735;51.432;5.482;2023-12-04T02:00:05;37.63;;;19.42;;
53833;SDS011;39735;51.432;5.482;2023-12-04T02:02:36;46.00;;;21.42;;
53833;SDS011;39735;51.432;5.482;2023-12-04T02:05:01;35.33;;;18.60;;
53833;SDS011;39735;51.432;5.482;2023-12-04T02:07:27;41.17;;;19.45;;
53833;SDS011;39735;51.432;5.482;2023-12-04T02:09:52;54.33;;;23.23;;
53833;SDS011;39735;51.432;5.482;2023-12-04T02:12:17;39.95;;;19.10;;
53833;SDS011;39735;51.432;5.482;2023-12-04T02:14:42;39.05;;;19.02;;
53833;SDS011;39735;51.432;5.482;2023-12-04T02:17:08;33.72;;;19.90;;
53833;SDS011;39735;51.432;5.482;2023-12-04T02:19:33;36.47;;;18.42;;
53833;SDS011;39735;51.432;5.482;2023-12-04T02:21:59;53.25;;;19.33;;
53833;SDS011;39735;51.432;5.482;2023-12-04T02:24:24;51.17;;;19.52;;
53833;SDS011;39735;51.432;5.482;2023-12-04T02:26:55;37.78;;;18.90;;
53833;SDS011;39735;51.432;5.482;2023-12-04T02:29:29;33.38;;;17.77;;
53833;SDS011;39735;51.432;5.482;2023-12-04T02:31:55;40.90;;;22.02;;
53833;SDS011;39735;51.432;5.482;2023-12-04T02:34:21;38.92;;;19.10;;
53833;SDS011;39735;51.432;5.482;2023-12-04T02:36:47;43.30;;;19.17;;
53833;SDS011;39735;51.432;5.482;2023-12-04T02:39:13;45.33;;;19.92;;
53833;SDS011;39735;51.432;5.482;2023-12-04T02:41:38;42.95;;;21.25;;
53833;SDS011;39735;51.432;5.482;2023-12-04T02:44:03;43.17;;;20.83;;
53833;SDS011;39735;51.432;5.482;2023-12-04T02:46:29;36.25;;;19.67;;
53833;SDS011;39735;51.432;5.482;2023-12-04T02:48:54;40.80;;;18.75;;
53833;SDS011;39735;51.432;5.482;2023-12-04T02:51:19;38.00;;;21.13;;
53833;SDS011;39735;51.432;5.482;2023-12-04T02:53:44;32.85;;;17.42;;
53833;SDS011;39735;51.432;5.482;2023-12-04T02:56:10;39.95;;;20.95;;
53833;SDS011;39735;51.432;5.482;2023-12-04T02:58:35;31.65;;;17.58;;
53833;SDS011;39735;51.432;5.482;2023-12-04T03:01:00;41.97;;;19.33;;
53833;SDS011;39735;51.432;5.482;2023-12-04T03:03:26;31.67;;;17.55;;
53833;SDS011;39735;51.432;5.482;2023-12-04T03:05:51;39.95;;;19.05;;
53833;SDS011;39735;51.432;5.482;2023-12-04T03:08:16;45.67;;;19.63;;
53833;SDS011;39735;51.432;5.482;2023-12-04T03:10:41;35.88;;;20.05;;
53833;SDS011;39735;51.432;5.482;2023-12-04T03:13:07;38.38;;;19.23;;
53833;SDS011;39735;51.432;5.482;2023-12-04T03:15:32;45.30;;;22.33;;
53833;SDS011;39735;51.432;5.482;2023-12-04T03:17:58;43.28;;;18.80;;
53833;SDS011;39735;51.432;5.482;2023-12-04T03:20:24;35.03;;;18.33;;
53833;SDS011;39735;51.432;5.482;2023-12-04T03:22:49;36.90;;;19.08;;
53833;SDS011;39735;51.432;5.482;2023-12-04T03:25:15;35.80;;;20.27;;
53833;SDS011;39735;51.432;5.482;2023-12-04T03:27:40;37.72;;;16.88;;
53833;SDS011;39735;51.432;5.482;2023-12-04T03:30:05;37.25;;;18.48;;
53833;SDS011;39735;51.432;5.482;2023-12-04T03:32:31;33.58;;;16.00;;
53833;SDS011;39735;51.432;5.482;2023-12-04T03:34:56;29.67;;;16.48;;
53833;SDS011;39735;51.432;5.482;2023-12-04T03:37:21;38.42;;;19.20;;
53833;SDS011;39735;51.432;5.482;2023-12-04T03:39:46;39.45;;;17.17;;
53833;SDS011;39735;51.432;5.482;2023-12-04T03:42:12;36.72;;;18.95;;
53833;SDS011;39735;51.432;5.482;2023-12-04T03:44:37;41.67;;;17.20;;
53833;SDS011;39735;51.432;5.482;2023-12-04T03:47:02;30.85;;;15.55;;
53833;SDS011;39735;51.432;5.482;2023-12-04T03:49:28;32.15;;;16.50;;
53833;SDS011;39735;51.432;5.482;2023-12-04T03:51:53;34.05;;;16.27;;
53833;SDS011;39735;51.432;5.482;2023-12-04T03:54:18;33.42;;;16.83;;
53833;SDS011;39735;51.432;5.482;2023-12-04T03:56:43;31.95;;;16.25;;
53833;SDS011;39735;51.432;5.482;2023-12-04T03:59:12;31.05;;;16.25;;
53833;SDS011;39735;51.432;5.482;2023-12-04T04:01:37;42.20;;;17.08;;
53833;SDS011;39735;51.432;5.482;2023-12-04T04:04:02;30.27;;;16.13;;
53833;SDS011;39735;51.432;5.482;2023-12-04T04:06:27;31.75;;;16.73;;
53833;SDS011;39735;51.432;5.482;2023-12-04T04:08:52;43.63;;;16.45;;
53833;SDS011;39735;51.432;5.482;2023-12-04T04:11:18;33.78;;;17.67;;
53833;SDS011;39735;51.432;5.482;2023-12-04T04:13:43;33.17;;;16.02;;
53833;SDS011;39735;51.432;5.482;2023-12-04T04:16:12;28.70;;;16.08;;
53833;SDS011;39735;51.432;5.482;2023-12-04T04:18:38;31.08;;;17.65;;
53833;SDS011;39735;51.432;5.482;2023-12-04T04:21:03;37.25;;;17.15;;
53833;SDS011;39735;51.432;5.482;2023-12-04T04:23:29;34.65;;;19.08;;
53833;SDS011;39735;51.432;5.482;2023-12-04T04:25:54;33.35;;;17.60;;
53833;SDS011;39735;51.432;5.482;2023-12-04T04:28:19;32.92;;;17.63;;
53833;SDS011;39735;51.432;5.482;2023-12-04T04:30:44;32.95;;;16.38;;
53833;SDS011;39735;51.432;5.482;2023-12-04T04:33:10;32.05;;;17.67;;
53833;SDS011;39735;51.432;5.482;2023-12-04T04:35:36;33.05;;;17.40;;
53833;SDS011;39735;51.432;5.482;2023-12-04T04:38:01;29.80;;;15.85;;
53833;SDS011;39735;51.432;5.482;2023-12-04T04:40:26;36.20;;;19.77;;
53833;SDS011;39735;51.432;5.482;2023-12-04T04:42:52;35.78;;;17.52;;
53833;SDS011;39735;51.432;5.482;2023-12-04T04:45:17;34.85;;;17.70;;
53833;SDS011;39735;51.432;5.482;2023-12-04T04:47:42;36.67;;;17.52;;
53833;SDS011;39735;51.432;5.482;2023-12-04T04:50:07;28.73;;;17.55;;
53833;SDS011;39735;51.432;5.482;2023-12-04T04:52:33;33.47;;;17.88;;
53833;SDS011;39735;51.432;5.482;2023-12-04T04:54:58;27.98;;;16.90;;
53833;SDS011;39735;51.432;5.482;2023-12-04T04:57:23;25.40;;;14.05;;
53833;SDS011;39735;51.432;5.482;2023-12-04T04:59:49;29.00;;;17.50;;
53833;SDS011;39735;51.432;5.482;2023-12-04T05:02:14;33.60;;;15.27;;
53833;SDS011;39735;51.432;5.482;2023-12-04T05:04:39;31.65;;;17.30;;
53833;SDS011;39735;51.432;5.482;2023-12-04T05:07:04;32.20;;;16.77;;
53833;SDS011;39735;51.432;5.482;2023-12-04T05:09:30;25.23;;;15.63;;
53833;SDS011;39735;51.432;5.482;2023-12-04T05:11:55;30.65;;;15.07;;
53833;SDS011;39735;51.432;5.482;2023-12-04T05:14:20;42.65;;;17.55;;
53833;SDS011;39735;51.432;5.482;2023-12-04T05:16:45;23.80;;;15.90;;
53833;SDS011;39735;51.432;5.482;2023-12-04T05:19:11;31.27;;;17.63;;
53833;SDS011;39735;51.432;5.482;2023-12-04T05:21:36;29.38;;;17.48;;
53833;SDS011;39735;51.432;5.482;2023-12-04T05:24:01;29.65;;;17.60;;
53833;SDS011;39735;51.432;5.482;2023-12-04T05:26:26;27.50;;;16.13;;
53833;SDS011;39735;51.432;5.482;2023-12-04T05:28:52;32.22;;;17.90;;
53833;SDS011;39735;51.432;5.482;2023-12-04T05:31:17;31.40;;;17.45;;
53833;SDS011;39735;51.432;5.482;2023-12-04T05:33:42;28.67;;;17.33;;
53833;SDS011;39735;51.432;5.482;2023-12-04T05:36:07;33.58;;;15.65;;
53833;SDS011;39735;51.432;5.482;2023-12-04T05:38:33;32.10;;;16.50;;
53833;SDS011;39735;51.432;5.482;2023-12-04T05:40:58;34.53;;;17.70;;
53833;SDS011;39735;51.432;5.482;2023-12-04T05:43:23;27.45;;;17.05;;
53833;SDS011;39735;51.432;5.482;2023-12-04T05:45:49;27.08;;;17.80;;
53833;SDS011;39735;51.432;5.482;2023-12-04T05:48:14;28.80;;;17.02;;
53833;SDS011;39735;51.432;5.482;2023-12-04T05:50:39;31.80;;;16.73;;
53833;SDS011;39735;51.432;5.482;2023-12-04T05:53:05;30.17;;;15.13;;
53833;SDS011;39735;51.432;5.482;2023-12-04T05:55:31;30.27;;;17.55;;
53833;SDS011;39735;51.432;5.482;2023-12-04T05:57:56;32.78;;;16.27;;
53833;SDS011;39735;51.432;5.482;2023-12-04T06:00:21;35.13;;;16.58;;
53833;SDS011;39735;51.432;5.482;2023-12-04T06:02:47;26.58;;;15.00;;
53833;SDS011;39735;51.432;5.482;2023-12-04T06:05:12;25.00;;;15.52;;
53833;SDS011;39735;51.432;5.482;2023-12-04T06:07:37;27.35;;;15.80;;
53833;SDS011;39735;51.432;5.482;2023-12-04T06:10:03;26.55;;;16.45;;
53833;SDS011;39735;51.432;5.482;2023-12-04T06:12:31;25.48;;;15.98;;
53833;SDS011;39735;51.432;5.482;2023-12-04T06:14:57;24.83;;;16.42;;
53833;SDS011;39735;51.432;5.482;2023-12-04T06:17:23;27.88;;;15.95;;
53833;SDS011;39735;51.432;5.482;2023-12-04T06:19:48;24.88;;;15.60;;
53833;SDS011;39735;51.432;5.482;2023-12-04T06:22:13;24.95;;;15.13;;
53833;SDS011;39735;51.432;5.482;2023-12-04T06:24:39;22.92;;;13.93;;
53833;SDS011;39735;51.432;5.482;2023-12-04T06:27:05;24.85;;;17.13;;
53833;SDS011;39735;51.432;5.482;2023-12-04T06:29:31;27.17;;;16.55;;
53833;SDS011;39735;51.432;5.482;2023-12-04T06:31:57;33.20;;;14.18;;
53833;SDS011;39735;51.432;5.482;2023-12-04T06:34:23;28.92;;;14.43;;
53833;SDS011;39735;51.432;5.482;2023-12-04T06:36:48;20.70;;;12.25;;
53833;SDS011;39735;51.432;5.482;2023-12-04T06:39:14;24.13;;;13.85;;
53833;SDS011;39735;51.432;5.482;2023-12-04T06:41:40;27.50;;;15.20;;
53833;SDS011;39735;51.432;5.482;2023-12-04T06:44:06;18.77;;;13.38;;
53833;SDS011;39735;51.432;5.482;2023-12-04T06:46:32;18.38;;;11.77;;
53833;SDS011;39735;51.432;5.482;2023-12-04T06:49:00;21.88;;;13.30;;
53833;SDS011;39735;51.432;5.482;2023-12-04T06:51:25;22.67;;;13.05;;
53833;SDS011;39735;51.432;5.482;2023-12-04T06:53:50;39.25;;;12.85;;
53833;SDS011;39735;51.432;5.482;2023-12-04T06:56:16;23.17;;;13.95;;
53833;SDS011;39735;51.432;5.482;2023-12-04T06:58:41;21.33;;;12.98;;
53833;SDS011;39735;51.432;5.482;2023-12-04T07:01:06;15.95;;;11.75;;
53833;SDS011;39735;51.432;5.482;2023-12-04T07:03:31;22.42;;;13.23;;
53833;SDS011;39735;51.432;5.482;2023-12-04T07:05:57;17.17;;;12.43;;
53833;SDS011;39735;51.432;5.482;2023-12-04T07:08:22;19.88;;;12.25;;
53833;SDS011;39735;51.432;5.482;2023-12-04T07:10:47;16.38;;;11.88;;
53833;SDS011;39735;51.432;5.482;2023-12-04T07:13:13;24.00;;;12.70;;
53833;SDS011;39735;51.432;5.482;2023-12-04T07:15:39;20.85;;;11.98;;
53833;SDS011;39735;51.432;5.482;2023-12-04T07:18:04;20.13;;;11.55;;
53833;SDS011;39735;51.432;5.482;2023-12-04T07:20:29;24.40;;;12.77;;
53833;SDS011;39735;51.432;5.482;2023-12-04T07:22:54;21.63;;;11.82;;
53833;SDS011;39735;51.432;5.482;2023-12-04T07:25:20;18.30;;;11.20;;
53833;SDS011;39735;51.432;5.482;2023-12-04T07:27:45;18.70;;;11.55;;
53833;SDS011;39735;51.432;5.482;2023-12-04T07:30:11;23.08;;;13.20;;
53833;SDS011;39735;51.432;5.482;2023-12-04T07:32:37;20.73;;;11.30;;
53833;SDS011;39735;51.432;5.482;2023-12-04T07:35:02;22.25;;;11.52;;
53833;SDS011;39735;51.432;5.482;2023-12-04T07:37:28;22.08;;;13.00;;
53833;SDS011;39735;51.432;5.482;2023-12-04T07:39:55;18.52;;;11.20;;
53833;SDS011;39735;51.432;5.482;2023-12-04T07:42:20;17.13;;;10.27;;
53833;SDS011;39735;51.432;5.482;2023-12-04T07:44:45;19.63;;;10.73;;
53833;SDS011;39735;51.432;5.482;2023-12-04T07:47:10;23.90;;;11.43;;
53833;SDS011;39735;51.432;5.482;2023-12-04T07:49:36;14.98;;;9.82;;
53833;SDS011;39735;51.432;5.482;2023-12-04T07:52:01;20.13;;;11.75;;
53833;SDS011;39735;51.432;5.482;2023-12-04T07:54:26;22.55;;;10.55;;
53833;SDS011;39735;51.432;5.482;2023-12-04T07:56:52;19.40;;;11.63;;
53833;SDS011;39735;51.432;5.482;2023-12-04T07:59:18;18.05;;;10.65;;
53833;SDS011;39735;51.432;5.482;2023-12-04T08:01:43;72.18;;;17.75;;
53833;SDS011;39735;51.432;5.482;2023-12-04T08:04:09;15.20;;;11.32;;
53833;SDS011;39735;51.432;5.482;2023-12-04T08:06:35;14.32;;;10.73;;
53833;SDS011;39735;51.432;5.482;2023-12-04T08:09:00;21.58;;;9.98;;
53833;SDS011;39735;51.432;5.482;2023-12-04T08:11:25;19.70;;;10.55;;
53833;SDS011;39735;51.432;5.482;2023-12-04T08:13:50;14.10;;;9.38;;
53833;SDS011;39735;51.432;5.482;2023-12-04T08:16:16;20.40;;;10.60;;
53833;SDS011;39735;51.432;5.482;2023-12-04T08:18:41;15.88;;;10.07;;
53833;SDS011;39735;51.432;5.482;2023-12-04T08:21:06;25.95;;;10.13;;
53833;SDS011;39735;51.432;5.482;2023-12-04T08:23:32;18.08;;;10.57;;
53833;SDS011;39735;51.432;5.482;2023-12-04T08:25:57;17.05;;;10.18;;
53833;SDS011;39735;51.432;5.482;2023-12-04T08:28:22;16.67;;;11.48;;
53833;SDS011;39735;51.432;5.482;2023-12-04T08:30:48;20.10;;;12.77;;
53833;SDS011;39735;51.432;5.482;2023-12-04T08:33:13;13.40;;;9.93;;
53833;SDS011;39735;51.432;5.482;2023-12-04T08:35:38;21.20;;;11.38;;
53833;SDS011;39735;51.432;5.482;2023-12-04T08:38:03;14.48;;;10.18;;
53833;SDS011;39735;51.432;5.482;2023-12-04T08:40:29;15.13;;;10.07;;
53833;SDS011;39735;51.432;5.482;2023-12-04T08:42:54;16.60;;;10.43;;
53833;SDS011;39735;51.432;5.482;2023-12-04T08:45:19;16.63;;;10.77;;
53833;SDS011;39735;51.432;5.482;2023-12-04T08:47:44;28.58;;;11.25;;
53833;SDS011;39735;51.432;5.482;2023-12-04T08:50:11;14.68;;;10.57;;
53833;SDS011;39735;51.432;5.482;2023-12-04T08:52:36;16.23;;;9.27;;
53833;SDS011;39735;51.432;5.482;2023-12-04T08:55:01;16.85;;;10.13;;
53833;SDS011;39735;51.432;5.482;2023-12-04T08:57:27;30.77;;;12.95;;
53833;SDS011;39735;51.432;5.482;2023-12-04T08:59:52;17.98;;;11.90;;
53833;SDS011;39735;51.432;5.482;2023-12-04T09:02:17;16.83;;;11.18;;
53833;SDS011;39735;51.432;5.482;2023-12-04T09:04:45;15.23;;;9.55;;
53833;SDS011;39735;51.432;5.482;2023-12-04T09:07:10;16.83;;;10.05;;
53833;SDS011;39735;51.432;5.482;2023-12-04T09:09:35;19.65;;;10.25;;
53833;SDS011;39735;51.432;5.482;2023-12-04T09:12:00;28.45;;;12.75;;
53833;SDS011;39735;51.432;5.482;2023-12-04T09:14:26;17.38;;;11.00;;
53833;SDS011;39735;51.432;5.482;2023-12-04T09:16:53;22.08;;;10.13;;
53833;SDS011;39735;51.432;5.482;2023-12-04T09:19:18;19.63;;;10.25;;
53833;SDS011;39735;51.432;5.482;2023-12-04T09:21:43;13.60;;;9.18;;
53833;SDS011;39735;51.432;5.482;2023-12-04T09:24:09;18.85;;;10.13;;
53833;SDS011;39735;51.432;5.482;2023-12-04T09:26:34;16.10;;;10.02;;
53833;SDS011;39735;51.432;5.482;2023-12-04T09:28:59;24.98;;;11.18;;
53833;SDS011;39735;51.432;5.482;2023-12-04T09:31:25;17.55;;;10.00;;
53833;SDS011;39735;51.432;5.482;2023-12-04T09:33:50;15.95;;;9.70;;
53833;SDS011;39735;51.432;5.482;2023-12-04T09:36:15;13.32;;;9.48;;
53833;SDS011;39735;51.432;5.482;2023-12-04T09:38:41;12.45;;;8.07;;
53833;SDS011;39735;51.432;5.482;2023-12-04T09:41:06;17.95;;;11.60;;
53833;SDS011;39735;51.432;5.482;2023-12-04T09:43:34;12.77;;;10.00;;
53833;SDS011;39735;51.432;5.482;2023-12-04T09:45:59;16.13;;;10.52;;
53833;SDS011;39735;51.432;5.482;2023-12-04T09:48:27;16.38;;;8.88;;
53833;SDS011;39735;51.432;5.482;2023-12-04T09:50:54;13.55;;;9.38;;
53833;SDS011;39735;51.432;5.482;2023-12-04T09:53:19;12.13;;;9.35;;
53833;SDS011;39735;51.432;5.482;2023-12-04T09:55:47;18.60;;;10.75;;
53833;SDS011;39735;51.432;5.482;2023-12-04T09:58:13;22.17;;;11.48;;
53833;SDS011;39735;51.432;5.482;2023-12-04T10:00:39;14.70;;;9.30;;
53833;SDS011;39735;51.432;5.482;2023-12-04T10:03:05;17.88;;;11.50;;
53833;SDS011;39735;51.432;5.482;2023-12-04T10:05:30;15.43;;;9.93;;
53833;SDS011;39735;51.432;5.482;2023-12-04T10:07:56;16.85;;;10.52;;
53833;SDS011;39735;51.432;5.482;2023-12-04T10:10:21;26.92;;;11.68;;
53833;SDS011;39735;51.432;5.482;2023-12-04T10:12:47;35.78;;;12.20;;
53833;SDS011;39735;51.432;5.482;2023-12-04T10:15:12;18.35;;;11.70;;
53833;SDS011;39735;51.432;5.482;2023-12-04T10:17:38;19.48;;;11.05;;
53833;SDS011;39735;51.432;5.482;2023-12-04T10:20:04;25.27;;;10.45;;
53833;SDS011;39735;51.432;5.482;2023-12-04T10:22:35;17.85;;;11.18;;
53833;SDS011;39735;51.432;5.482;2023-12-04T10:25:06;28.95;;;13.43;;
53833;SDS011;39735;51.432;5.482;2023-12-04T10:27:38;23.13;;;12.90;;
53833;SDS011;39735;51.432;5.482;2023-12-04T10:30:03;17.02;;;11.98;;
53833;SDS011;39735;51.432;5.482;2023-12-04T10:32:32;16.55;;;12.38;;
53833;SDS011;39735;51.432;5.482;2023-12-04T10:35:01;17.95;;;13.30;;
53833;SDS011;39735;51.432;5.482;2023-12-04T10:37:28;17.15;;;11.57;;
53833;SDS011;39735;51.432;5.482;2023-12-04T10:39:54;22.15;;;14.13;;
53833;SDS011;39735;51.432;5.482;2023-12-04T10:42:29;22.35;;;13.35;;
53833;SDS011;39735;51.432;5.482;2023-12-04T10:44:55;23.52;;;13.98;;
53833;SDS011;39735;51.432;5.482;2023-12-04T10:47:21;32.83;;;13.93;;
53833;SDS011;39735;51.432;5.482;2023-12-04T10:49:51;24.10;;;17.05;;
53833;SDS011;39735;51.432;5.482;2023-12-04T10:52:16;20.67;;;13.13;;
53833;SDS011;39735;51.432;5.482;2023-12-04T10:54:44;25.20;;;14.60;;
53833;SDS011;39735;51.432;5.482;2023-12-04T10:57:09;20.92;;;14.55;;
53833;SDS011;39735;51.432;5.482;2023-12-04T10:59:36;28.02;;;15.07;;
53833;SDS011;39735;51.432;5.482;2023-12-04T11:02:04;27.23;;;14.98;;
53833;SDS011;39735;51.432;5.482;2023-12-04T11:04:30;22.73;;;14.10;;
53833;SDS011;39735;51.432;5.482;2023-12-04T11:06:56;33.17;;;15.13;;
53833;SDS011;39735;51.432;5.482;2023-12-04T11:09:22;24.55;;;14.80;;
53833;SDS011;39735;51.432;5.482;2023-12-04T11:11:53;25.52;;;15.15;;
53833;SDS011;39735;51.432;5.482;2023-12-04T11:14:22;25.88;;;16.10;;
53833;SDS011;39735;51.432;5.482;2023-12-04T11:16:54;27.48;;;16.30;;
53833;SDS011;39735;51.432;5.482;2023-12-04T11:21:50;26.42;;;16.00;;
53833;SDS011;39735;51.432;5.482;2023-12-04T11:24:16;23.58;;;14.00;;
53833;SDS011;39735;51.432;5.482;2023-12-04T11:26:42;22.58;;;15.68;;
53833;SDS011;39735;51.432;5.482;2023-12-04T11:29:08;29.95;;;13.93;;
53833;SDS011;39735;51.432;5.482;2023-12-04T11:31:34;28.70;;;14.25;;
53833;SDS011;39735;51.432;5.482;2023-12-04T11:34:03;27.25;;;15.43;;
53833;SDS011;39735;51.432;5.482;2023-12-04T11:36:29;26.17;;;13.90;;
53833;SDS011;39735;51.432;5.482;2023-12-04T11:38:54;25.88;;;13.98;;
53833;SDS011;39735;51.432;5.482;2023-12-04T11:41:22;18.85;;;13.52;;
53833;SDS011;39735;51.432;5.482;2023-12-04T11:43:48;26.58;;;15.77;;
53833;SDS011;39735;51.432;5.482;2023-12-04T11:46:13;23.77;;;12.75;;
53833;SDS011;39735;51.432;5.482;2023-12-04T11:48:39;21.65;;;14.02;;
53833;SDS011;39735;51.432;5.482;2023-12-04T11:51:05;21.55;;;13.77;;
53833;SDS011;39735;51.432;5.482;2023-12-04T11:53:32;20.23;;;13.43;;
53833;SDS011;39735;51.432;5.482;2023-12-04T11:55:57;20.98;;;14.50;;
53833;SDS011;39735;51.432;5.482;2023-12-04T11:58:22;20.42;;;12.00;;
53833;SDS011;39735;51.432;5.482;2023-12-04T12:00:48;19.17;;;12.57;;
53833;SDS011;39735;51.432;5.482;2023-12-04T12:03:14;19.90;;;13.50;;
53833;SDS011;39735;51.432;5.482;2023-12-04T12:05:40;21.75;;;11.98;;
53833;SDS011;39735;51.432;5.482;2023-12-04T12:08:06;35.15;;;16.40;;
53833;SDS011;39735;51.432;5.482;2023-12-04T12:10:32;19.10;;;13.02;;
53833;SDS011;39735;51.432;5.482;2023-12-04T12:12:57;28.52;;;15.32;;
53833;SDS011;39735;51.432;5.482;2023-12-04T12:15:23;17.27;;;11.95;;
53833;SDS011;39735;51.432;5.482;2023-12-04T12:17:49;17.35;;;12.43;;
53833;SDS011;39735;51.432;5.482;2023-12-04T12:20:14;19.85;;;12.68;;
53833;SDS011;39735;51.432;5.482;2023-12-04T12:22:40;22.48;;;14.15;;
53833;SDS011;39735;51.432;5.482;2023-12-04T12:25:07;37.10;;;14.15;;
53833;SDS011;39735;51.432;5.482;2023-12-04T12:27:32;20.48;;;14.32;;
53833;SDS011;39735;51.432;5.482;2023-12-04T12:29:57;20.80;;;14.35;;
53833;SDS011;39735;51.432;5.482;2023-12-04T12:32:23;25.60;;;12.88;;
53833;SDS011;39735;51.432;5.482;2023-12-04T12:34:48;36.55;;;15.40;;
53833;SDS011;39735;51.432;5.482;2023-12-04T12:37:13;26.13;;;14.35;;
53833;SDS011;39735;51.432;5.482;2023-12-04T12:39:39;29.13;;;12.90;;
53833;SDS011;39735;51.432;5.482;2023-12-04T12:42:04;27.85;;;14.98;;
53833;SDS011;39735;51.432;5.482;2023-12-04T12:44:40;24.98;;;14.10;;
53833;SDS011;39735;51.432;5.482;2023-12-04T12:47:08;28.83;;;14.45;;
53833;SDS011;39735;51.432;5.482;2023-12-04T12:49:33;22.77;;;14.80;;
53833;SDS011;39735;51.432;5.482;2023-12-04T12:52:00;20.95;;;13.65;;
53833;SDS011;39735;51.432;5.482;2023-12-04T12:54:26;24.75;;;13.70;;
53833;SDS011;39735;51.432;5.482;2023-12-04T12:56:51;25.60;;;14.50;;
53833;SDS011;39735;51.432;5.482;2023-12-04T12:59:16;24.75;;;14.48;;
53833;SDS011;39735;51.432;5.482;2023-12-04T13:01:42;27.52;;;13.52;;
53833;SDS011;39735;51.432;5.482;2023-12-04T13:04:08;28.63;;;15.32;;
53833;SDS011;39735;51.432;5.482;2023-12-04T13:06:35;25.98;;;14.88;;
53833;SDS011;39735;51.432;5.482;2023-12-04T13:09:00;24.92;;;13.77;;
53833;SDS011;39735;51.432;5.482;2023-12-04T13:11:25;25.58;;;15.20;;
53833;SDS011;39735;51.432;5.482;2023-12-04T13:13:50;33.55;;;15.13;;
53833;SDS011;39735;51.432;5.482;2023-12-04T13:16:16;26.08;;;14.45;;
53833;SDS011;39735;51.432;5.482;2023-12-04T13:18:41;20.92;;;13.10;;
53833;SDS011;39735;51.432;5.482;2023-12-04T13:21:07;30.40;;;13.40;;
53833;SDS011;39735;51.432;5.482;2023-12-04T13:23:35;20.52;;;14.27;;
53833;SDS011;39735;51.432;5.482;2023-12-04T13:26:00;18.95;;;12.55;;
53833;SDS011;39735;51.432;5.482;2023-12-04T13:28:26;24.95;;;13.65;;
53833;SDS011;39735;51.432;5.482;2023-12-04T13:30:51;26.35;;;12.43;;
53833;SDS011;39735;51.432;5.482;2023-12-04T13:33:17;37.80;;;12.93;;
53833;SDS011;39735;51.432;5.482;2023-12-04T13:35:42;31.85;;;14.77;;
53833;SDS011;39735;51.432;5.482;2023-12-04T13:38:08;24.52;;;12.77;;
53833;SDS011;39735;51.432;5.482;2023-12-04T13:40:38;25.88;;;12.57;;
53833;SDS011;39735;51.432;5.482;2023-12-04T13:43:03;15.43;;;11.50;;
53833;SDS011;39735;51.432;5.482;2023-12-04T13:45:47;21.73;;;13.37;;
53833;SDS011;39735;51.432;5.482;2023-12-04T13:48:13;13.95;;;10.68;;
53833;SDS011;39735;51.432;5.482;2023-12-04T13:50:40;18.73;;;11.75;;
53833;SDS011;39735;51.432;5.482;2023-12-04T13:53:05;15.95;;;10.32;;
53833;SDS011;39735;51.432;5.482;2023-12-04T13:55:32;22.42;;;12.40;;
53833;SDS011;39735;51.432;5.482;2023-12-04T13:58:18;14.57;;;10.45;;
53833;SDS011;39735;51.432;5.482;2023-12-04T14:01:01;26.35;;;12.18;;
53833;SDS011;39735;51.432;5.482;2023-12-04T14:03:36;19.63;;;12.23;;
53833;SDS011;39735;51.432;5.482;2023-12-04T14:06:02;19.65;;;12.23;;
53833;SDS011;39735;51.432;5.482;2023-12-04T14:08:27;30.25;;;13.00;;
53833;SDS011;39735;51.432;5.482;2023-12-04T14:10:52;23.60;;;12.60;;
53833;SDS011;39735;51.432;5.482;2023-12-04T14:13:17;32.22;;;12.77;;
53833;SDS011;39735;51.432;5.482;2023-12-04T14:15:43;27.05;;;13.18;;